Annandale, Minnesota
Current Conditions -  °F | °C
As of 10:16 AM on Wednesday 28 Jan 2015 (Local Time) from KMGG Reporting Station
Haze Haze  
Wind Chill: 23°   Ceiling: 600
Heat Index: 31°   Visibility: 4mi
Dew Point: 30°   Wind: 10mph
Humidity: 95%   Direction: 130°SE
Pressure: 29.92"   Gusts: NA
Location:  45.26°N, 94.12°W
Report Text: KMGG 281616Z AUTO 13009KT 4SM BR OVC006 00/M01 A2992 RMK AO2 T10041011
Loading
Personal Weather Stations






























Interactive Weather Map New forecast layout! Learn more

10-Day Weather Forecast

Advertisements
Track Severe Weather on mobile